createdAt,value
2022-11-05T00:00:36.382Z,99698.72
2022-11-05T00:03:03.280Z,99704.03
2022-11-05T00:05:30.199Z,99705.69
2022-11-05T00:07:59.247Z,99698.06
2022-11-05T00:10:29.723Z,99693.44
2022-11-05T00:12:58.802Z,99692.97
2022-11-05T00:15:25.332Z,99694.19
2022-11-05T00:17:51.868Z,99695.09
2022-11-05T00:20:18.573Z,99695.81
2022-11-05T00:22:45.098Z,99701.16
2022-11-05T00:25:11.712Z,99701.84
2022-11-05T00:27:38.281Z,99698.56
2022-11-05T00:30:05.442Z,99703.91
2022-11-05T00:32:32.037Z,99714.97
2022-11-05T00:34:58.686Z,99709.22
2022-11-05T00:37:27.622Z,99707.84
2022-11-05T00:39:54.118Z,99715.50
2022-11-05T00:42:20.811Z,99710.31
2022-11-05T00:44:47.285Z,99717.09
2022-11-05T00:47:13.816Z,99715.13
2022-11-05T00:49:40.484Z,99720.97
2022-11-05T00:52:06.980Z,99724.69
2022-11-05T00:54:33.470Z,99721.84
2022-11-05T00:57:04.481Z,99729.19
2022-11-05T00:59:31.347Z,99735.47
2022-11-05T01:01:58.045Z,99734.91
2022-11-05T01:04:25.019Z,99729.75
2022-11-05T01:06:51.559Z,99726.47
2022-11-05T01:09:18.082Z,99730.81
2022-11-05T01:11:44.771Z,99729.19
2022-11-05T01:14:14.507Z,99733.59
2022-11-05T01:16:41.562Z,99745.84
2022-11-05T01:19:10.358Z,99736.06
2022-11-05T01:21:36.942Z,99734.69
2022-11-05T01:24:04.294Z,99739.84
2022-11-05T01:26:30.997Z,99746.25
2022-11-05T01:28:58.872Z,99745.03
2022-11-05T01:31:25.496Z,99744.22
2022-11-05T01:33:52.079Z,99751.59
2022-11-05T01:36:18.748Z,99754.31
2022-11-05T01:38:45.382Z,99758.13
2022-11-05T01:41:12.135Z,99761.00
2022-11-05T01:43:47.823Z,99754.19
2022-11-05T01:46:16.025Z,99753.22
2022-11-05T01:48:42.797Z,99766.56
2022-11-05T01:51:13.782Z,99760.44
2022-11-05T01:53:48.539Z,99762.91
2022-11-05T01:56:20.233Z,99755.81
2022-11-05T01:58:56.752Z,99772.31
2022-11-05T02:01:23.526Z,99773.25
2022-11-05T02:03:53.479Z,99771.50
2022-11-05T02:06:21.245Z,99776.41
2022-11-05T02:08:56.956Z,99772.44
2022-11-05T02:11:24.255Z,99775.59
2022-11-05T02:13:51.065Z,99781.28
2022-11-05T02:16:55.854Z,99777.75
2022-11-05T02:19:34.255Z,99781.16
2022-11-05T02:22:24.569Z,99778.31
2022-11-05T02:25:31.093Z,99788.91
2022-11-05T02:28:22.374Z,99797.38
2022-11-05T02:31:17.258Z,99801.75
2022-11-05T02:34:13.347Z,99801.31
2022-11-05T02:36:54.615Z,99800.66
2022-11-05T02:39:21.142Z,99804.72
2022-11-05T02:41:47.648Z,99799.69
2022-11-05T02:44:34.621Z,99813.84
2022-11-05T02:47:19.275Z,99805.00
2022-11-05T02:49:53.980Z,99812.06
2022-11-05T02:52:28.434Z,99809.22
2022-11-05T02:55:16.651Z,99815.91
2022-11-05T02:57:47.610Z,99811.25
2022-11-05T03:00:35.950Z,99822.41
2022-11-05T03:03:05.588Z,99822.03
2022-11-05T03:05:46.256Z,99828.03
2022-11-05T03:08:25.881Z,99829.28
2022-11-05T03:11:02.510Z,99827.91
2022-11-05T03:13:37.218Z,99832.94
2022-11-05T03:16:12.574Z,99833.88
2022-11-05T03:18:49.455Z,99834.81
2022-11-05T03:21:31.327Z,99835.38
2022-11-05T03:24:13.317Z,99839.47
2022-11-05T03:26:53.539Z,99842.34
2022-11-05T03:29:25.035Z,99844.59
2022-11-05T03:31:55.039Z,99882.13
2022-11-05T03:34:27.982Z,99849.56
2022-11-05T03:36:57.312Z,99864.91
2022-11-05T03:39:31.788Z,99854.25
2022-11-05T03:42:01.271Z,99856.44
2022-11-05T03:44:32.628Z,99855.91
2022-11-05T03:47:07.530Z,99851.16
2022-11-05T03:49:43.152Z,99860.13
2022-11-05T03:52:18.457Z,99854.44
2022-11-05T03:54:46.129Z,99856.75
2022-11-05T03:57:35.526Z,99863.00
2022-11-05T04:00:05.936Z,99869.84
2022-11-05T04:02:32.769Z,99865.47
2022-11-05T04:04:59.571Z,99867.81
2022-11-05T04:07:26.124Z,99869.03
2022-11-05T04:09:53.003Z,99883.22
2022-11-05T04:12:19.615Z,99876.63
2022-11-05T04:14:46.095Z,99873.38
2022-11-05T04:17:12.676Z,99883.88
2022-11-05T04:19:41.300Z,99882.25
2022-11-05T04:22:07.825Z,99884.69
2022-11-05T04:24:34.303Z,99886.72
2022-11-05T04:27:00.886Z,99891.06
2022-11-05T04:29:27.475Z,99891.75
2022-11-05T04:31:54.159Z,99898.00
2022-11-05T04:34:21.204Z,99898.97
2022-11-05T04:36:51.793Z,99894.91
2022-11-05T04:39:19.370Z,99905.00
2022-11-05T04:41:46.842Z,99905.44
2022-11-05T04:44:14.094Z,99912.09
2022-11-05T04:46:41.009Z,99912.09
2022-11-05T04:49:07.849Z,99914.53
2022-11-05T04:51:34.343Z,99919.75
2022-11-05T04:54:00.839Z,99917.66
2022-11-05T04:56:27.604Z,99921.56
2022-11-05T04:58:54.084Z,99922.97
2022-11-05T05:01:22.876Z,99928.44
2022-11-05T05:03:51.510Z,99926.94
2022-11-05T05:06:18.923Z,99928.03
2022-11-05T05:08:50.162Z,99954.09
2022-11-05T05:11:19.578Z,99945.81
2022-11-05T05:13:46.248Z,99949.19
2022-11-05T05:16:22.319Z,99947.81
2022-11-05T05:18:49.461Z,99952.50
2022-11-05T05:21:17.883Z,99948.56
2022-11-05T05:23:44.664Z,99952.03
2022-11-05T05:26:11.203Z,99962.22
2022-11-05T05:28:37.700Z,99956.34
2022-11-05T05:31:04.279Z,99962.09
2022-11-05T05:33:30.786Z,99967.81
2022-11-05T05:35:58.491Z,100002.88
2022-11-05T05:38:25.159Z,99974.66
2022-11-05T05:40:52.152Z,99977.09
2022-11-05T05:43:18.740Z,99980.38
2022-11-05T05:45:46.653Z,99982.00
2022-11-05T05:48:13.150Z,99990.47
2022-11-05T05:50:39.654Z,99996.88
2022-11-05T05:53:06.381Z,99991.16
2022-11-05T05:55:33.085Z,100000.44
2022-11-05T05:57:59.637Z,99998.25
2022-11-05T06:00:26.203Z,99997.16
2022-11-05T06:02:55.750Z,99998.91
2022-11-05T06:05:22.622Z,100002.22
2022-11-05T06:07:58.434Z,100005.59
2022-11-05T06:10:25.310Z,100002.75
2022-11-05T06:12:54.216Z,100005.34
2022-11-05T06:15:20.931Z,100005.22
2022-11-05T06:17:47.441Z,100006.59
2022-11-05T06:20:14.015Z,100010.66
2022-11-05T06:22:40.782Z,100001.69
2022-11-05T06:25:08.289Z,100006.44
2022-11-05T06:27:35.104Z,100010.78
2022-11-05T06:30:01.793Z,100014.75
2022-11-05T06:32:28.386Z,100020.09
2022-11-05T06:34:54.911Z,100019.31
2022-11-05T06:37:21.573Z,100020.44
2022-11-05T06:39:48.156Z,100017.47
2022-11-05T06:42:18.954Z,100023.38
2022-11-05T06:44:46.087Z,100027.22
2022-11-05T06:47:12.691Z,100025.97
2022-11-05T06:49:39.166Z,100033.09
2022-11-05T06:52:05.874Z,100029.16
2022-11-05T06:54:32.400Z,100030.41
2022-11-05T06:56:58.913Z,100036.25
2022-11-05T06:59:25.497Z,100039.38
2022-11-05T07:01:52.147Z,100034.28
2022-11-05T07:04:21.217Z,100043.09
2022-11-05T07:06:47.875Z,100048.97
2022-11-05T07:09:15.256Z,100055.13
2022-11-05T07:11:41.911Z,100051.03
2022-11-05T07:14:08.821Z,100050.75
2022-11-05T07:16:35.356Z,100055.34
2022-11-05T07:19:01.921Z,100056.19
2022-11-05T07:21:29.043Z,100053.72
2022-11-05T07:23:55.707Z,100060.53
2022-11-05T07:26:22.211Z,100057.94
2022-11-05T07:28:50.823Z,100069.19
2022-11-05T07:31:17.345Z,100066.31
2022-11-05T07:33:43.969Z,100072.94
2022-11-05T07:36:10.657Z,100067.72
2022-11-05T07:38:37.221Z,100073.84
2022-11-05T07:41:04.178Z,100081.47
2022-11-05T07:43:30.931Z,100077.00
2022-11-05T07:45:57.487Z,100078.13
2022-11-05T07:48:24.192Z,100073.78
2022-11-05T07:50:53.378Z,100077.63
2022-11-05T07:53:23.012Z,100082.22
2022-11-05T07:55:49.630Z,100083.31
2022-11-05T07:58:16.441Z,100088.88
2022-11-05T08:00:43.057Z,100082.78
2022-11-05T08:03:14.315Z,100087.44
2022-11-05T08:05:43.702Z,100090.34
2022-11-05T08:08:13.326Z,100095.34
2022-11-05T08:10:43.800Z,100096.16
2022-11-05T08:13:12.503Z,100101.09
2022-11-05T08:15:39.367Z,100098.56
2022-11-05T08:18:10.628Z,100099.16
2022-11-05T08:20:37.605Z,100100.78
2022-11-05T08:23:06.324Z,100092.88
2022-11-05T08:25:33.247Z,100103.69
2022-11-05T08:28:05.232Z,100097.94
2022-11-05T08:30:32.493Z,100104.56
2022-11-05T08:33:01.766Z,100106.59
2022-11-05T08:35:29.691Z,100114.88
2022-11-05T08:37:57.867Z,100120.31
2022-11-05T08:40:25.255Z,100115.31
2022-11-05T08:42:52.572Z,100108.94
2022-11-05T08:45:19.170Z,100110.75
2022-11-05T08:47:48.642Z,100112.47
2022-11-05T08:50:15.325Z,100107.22
2022-11-05T08:52:41.892Z,100112.34
2022-11-05T08:55:08.915Z,100112.78
2022-11-05T08:57:35.510Z,100120.56
2022-11-05T09:00:04.794Z,100129.38
2022-11-05T09:02:31.419Z,100139.88
2022-11-05T09:04:58.030Z,100130.97
2022-11-05T09:07:24.705Z,100136.28
2022-11-05T09:09:51.326Z,100138.88
2022-11-05T09:12:18.037Z,100139.88
2022-11-05T09:14:44.524Z,100138.75
2022-11-05T09:17:22.163Z,100147.84
2022-11-05T09:19:49.070Z,100157.69
2022-11-05T09:22:15.850Z,100154.41
2022-11-05T09:24:43.350Z,100148.91
2022-11-05T09:27:11.627Z,100148.63
2022-11-05T09:29:38.165Z,100144.50
2022-11-05T09:32:05.388Z,100144.22
2022-11-05T09:34:31.902Z,100143.66
2022-11-05T09:36:58.988Z,100157.19
2022-11-05T09:39:25.901Z,100155.38
2022-11-05T09:41:56.044Z,100157.66
2022-11-05T09:44:29.251Z,100160.38
2022-11-05T09:47:04.846Z,100162.38
2022-11-05T09:49:34.269Z,100165.41
2022-11-05T09:52:02.135Z,100171.38
2022-11-05T09:54:31.307Z,100165.13
2022-11-05T09:56:59.944Z,100173.84
2022-11-05T09:59:31.483Z,100170.84
2022-11-05T10:02:29.340Z,100175.84
2022-11-05T10:05:02.408Z,100163.53
2022-11-05T10:07:42.678Z,100178.00
2022-11-05T10:10:24.342Z,100172.31
2022-11-05T10:12:55.154Z,100175.59
2022-11-05T10:15:36.362Z,100170.84
2022-11-05T10:18:23.287Z,100172.06
2022-11-05T10:20:49.822Z,100169.22
2022-11-05T10:23:20.764Z,100165.13
2022-11-05T10:25:50.386Z,100171.28
2022-11-05T10:28:20.656Z,100170.97
2022-11-05T10:30:52.421Z,100174.75
2022-11-05T10:33:45.911Z,100182.47
2022-11-05T10:36:26.576Z,100184.75
2022-11-05T10:38:56.978Z,100178.88
2022-11-05T10:41:30.352Z,100184.38
2022-11-05T10:44:17.621Z,100183.28
2022-11-05T10:47:05.008Z,100184.75
2022-11-05T10:50:04.280Z,100185.72
2022-11-05T10:52:53.755Z,100182.06
2022-11-05T10:55:31.642Z,100194.06
2022-11-05T10:58:13.512Z,100193.63
2022-11-05T11:00:40.207Z,100195.59
2022-11-05T11:03:39.076Z,100188.13
2022-11-05T11:06:19.706Z,100189.22
2022-11-05T11:08:48.674Z,100187.31
2022-11-05T11:11:34.494Z,100204.31
2022-11-05T11:14:11.697Z,100204.13
2022-11-05T11:16:39.681Z,100201.06
2022-11-05T11:19:25.620Z,100198.47
2022-11-05T11:22:04.253Z,100206.09
2022-11-05T11:24:51.473Z,100206.34
2022-11-05T11:27:32.186Z,100210.94
2022-11-05T11:30:00.903Z,100201.97
2022-11-05T11:32:34.097Z,100212.72
2022-11-05T11:35:01.106Z,100204.50
2022-11-05T11:37:35.376Z,100213.84
2022-11-05T11:40:12.914Z,100216.78
2022-11-05T11:42:43.999Z,100237.81
2022-11-05T11:45:38.274Z,100224.72
2022-11-05T11:48:06.530Z,100225.97
2022-11-05T11:50:44.631Z,100227.31
2022-11-05T11:53:20.449Z,100223.50
2022-11-05T11:55:55.846Z,100228.69
2022-11-05T11:58:24.457Z,100234.00
2022-11-05T12:00:59.877Z,100225.09
2022-11-05T12:03:36.884Z,100230.97
2022-11-05T12:06:31.581Z,100218.38
2022-11-05T12:09:06.393Z,100221.88
2022-11-05T12:11:46.033Z,100233.56
2022-11-05T12:14:34.647Z,100237.38
2022-11-05T12:17:07.319Z,100238.34
2022-11-05T12:19:55.416Z,100242.56
2022-11-05T12:22:46.738Z,100244.69
2022-11-05T12:25:13.331Z,100251.97
2022-11-05T12:27:39.815Z,100247.03
2022-11-05T12:30:16.570Z,100254.00
2022-11-05T12:32:55.794Z,100256.81
2022-11-05T12:35:25.013Z,100258.78
2022-11-05T12:38:19.401Z,100252.22
2022-11-05T12:41:16.229Z,100260.13
2022-11-05T12:44:07.279Z,100257.16
2022-11-05T12:46:57.996Z,100255.31
2022-11-05T12:49:47.172Z,100263.78
2022-11-05T12:52:47.499Z,100265.34
2022-11-05T12:55:19.431Z,100264.63
2022-11-05T12:57:52.000Z,100258.19
2022-11-05T13:00:27.846Z,100265.22
2022-11-05T13:02:54.520Z,100277.38
2022-11-05T13:05:40.680Z,100276.44
2022-11-05T13:08:10.558Z,100279.50
2022-11-05T13:10:45.497Z,100282.31
2022-11-05T13:13:35.225Z,100290.03
2022-11-05T13:16:07.377Z,100296.78
2022-11-05T13:18:45.975Z,100292.25
2022-11-05T13:21:13.114Z,100294.97
2022-11-05T13:23:54.635Z,100294.28
2022-11-05T13:26:36.262Z,100292.75
2022-11-05T13:29:11.480Z,100305.38
2022-11-05T13:31:43.464Z,100297.13
2022-11-05T13:34:12.238Z,100305.34
2022-11-05T13:36:58.688Z,100310.16
2022-11-05T13:39:29.075Z,100313.50
2022-11-05T13:42:28.566Z,100300.38
2022-11-05T13:45:21.305Z,100292.97
2022-11-05T13:48:11.965Z,100303.59
2022-11-05T13:51:24.604Z,100305.59
2022-11-05T13:53:51.145Z,100312.91
2022-11-05T13:56:54.822Z,100328.91
2022-11-05T13:59:52.814Z,100333.81
2022-11-05T14:02:28.545Z,100326.22
2022-11-05T14:05:01.335Z,100331.22
2022-11-05T14:07:43.475Z,100332.38
2022-11-05T14:10:22.253Z,100329.72
2022-11-05T14:12:52.285Z,100324.75
2022-11-05T14:15:23.550Z,100326.63
2022-11-05T14:17:58.978Z,100324.81
2022-11-05T14:20:37.661Z,100323.28
2022-11-05T14:23:22.048Z,100323.88
2022-11-05T14:25:57.390Z,100322.25
2022-11-05T14:28:35.836Z,100331.06
2022-11-05T14:31:04.706Z,100335.34
2022-11-05T14:33:37.323Z,100331.47
2022-11-05T14:36:22.011Z,100329.44
2022-11-05T14:38:56.111Z,100342.63
2022-11-05T14:41:25.557Z,100342.28
2022-11-05T14:43:59.400Z,100345.94
2022-11-05T14:46:42.926Z,100335.81
2022-11-05T14:49:27.393Z,100340.63
2022-11-05T14:51:56.923Z,100339.69
2022-11-05T14:54:34.544Z,100340.25
2022-11-05T14:57:02.182Z,100335.63
2022-11-05T14:59:30.767Z,100336.81
2022-11-05T15:02:38.777Z,100338.09
2022-11-05T15:05:48.633Z,100344.94
2022-11-05T15:08:51.938Z,100353.66
2022-11-05T15:11:24.633Z,100357.66
2022-11-05T15:13:54.792Z,100352.16
2022-11-05T15:16:52.220Z,100362.25
2022-11-05T15:19:34.621Z,100366.38
2022-11-05T15:22:05.616Z,100363.31
2022-11-05T15:24:33.566Z,100366.38
2022-11-05T15:27:05.859Z,100363.44
2022-11-05T15:29:33.151Z,100371.31
2022-11-05T15:32:00.392Z,100381.78
2022-11-05T15:34:36.876Z,100384.72
2022-11-05T15:37:12.189Z,100382.59
2022-11-05T15:39:41.863Z,100388.50
2022-11-05T15:42:19.982Z,100390.41
2022-11-05T15:44:52.607Z,100385.22
2022-11-05T15:47:35.784Z,100387.56
2022-11-05T15:50:14.632Z,100394.50
2022-11-05T15:52:53.122Z,100398.16
2022-11-05T15:55:22.448Z,100390.41
2022-11-05T15:58:05.180Z,100388.03
2022-11-05T16:00:34.744Z,100391.94
2022-11-05T16:03:17.033Z,100398.16
2022-11-05T16:05:46.948Z,100388.88
2022-11-05T16:08:20.978Z,100399.81
2022-11-05T16:10:50.945Z,100397.81
2022-11-05T16:13:35.970Z,100403.44
2022-11-05T16:16:06.993Z,100400.97
2022-11-05T16:18:37.709Z,100400.97
2022-11-05T16:21:05.816Z,100392.47
2022-11-05T16:23:53.015Z,100399.75
2022-11-05T16:27:01.210Z,100406.91
2022-11-05T16:29:37.763Z,100406.16
2022-11-05T16:32:15.690Z,100409.31
2022-11-05T16:34:47.779Z,100404.38
2022-11-05T16:37:18.252Z,100415.56
2022-11-05T16:39:44.843Z,100409.56
2022-11-05T16:42:23.677Z,100402.72
2022-11-05T16:44:55.033Z,100411.91
2022-11-05T16:47:22.798Z,100405.66
2022-11-05T16:49:49.579Z,100413.78
2022-11-05T16:52:16.734Z,100406.47
2022-11-05T16:54:43.406Z,100405.69
2022-11-05T16:57:22.037Z,100402.81
2022-11-05T16:59:48.709Z,100408.25
2022-11-05T17:02:15.301Z,100405.09
2022-11-05T17:04:42.097Z,100400.25
2022-11-05T17:07:08.716Z,100403.56
2022-11-05T17:09:35.417Z,100404.13
2022-11-05T17:12:02.061Z,100397.31
2022-11-05T17:14:28.908Z,100409.78
2022-11-05T17:16:55.507Z,100406.59
2022-11-05T17:19:22.148Z,100417.91
2022-11-05T17:21:48.694Z,100411.88
2022-11-05T17:24:15.175Z,100412.91
2022-11-05T17:26:41.882Z,100413.69
2022-11-05T17:29:08.419Z,100419.81
2022-11-05T17:31:34.952Z,100423.94
2022-11-05T17:34:01.622Z,100423.22
2022-11-05T17:36:28.213Z,100426.31
2022-11-05T17:38:54.803Z,100421.25
2022-11-05T17:41:23.290Z,100428.91
2022-11-05T17:43:55.778Z,100431.03
2022-11-05T17:46:26.110Z,100428.78
2022-11-05T17:48:52.697Z,100432.78
2022-11-05T17:51:20.355Z,100427.00
2022-11-05T17:53:47.869Z,100434.16
2022-11-05T17:56:24.615Z,100433.22
2022-11-05T17:58:56.012Z,100436.06
2022-11-05T18:01:28.963Z,100443.03
2022-11-05T18:03:55.905Z,100438.34
2022-11-05T18:06:22.463Z,100428.22
2022-11-05T18:08:50.260Z,100430.84
2022-11-05T18:11:17.619Z,100443.75
2022-11-05T18:13:44.195Z,100436.84
2022-11-05T18:16:10.751Z,100440.22
2022-11-05T18:18:37.308Z,100442.78
2022-11-05T18:21:04.092Z,100448.06
2022-11-05T18:23:30.731Z,100449.47
2022-11-05T18:25:57.457Z,100449.22
2022-11-05T18:28:24.059Z,100456.41
2022-11-05T18:30:50.605Z,100459.94
2022-11-05T18:33:17.507Z,100466.13
2022-11-05T18:35:44.603Z,100469.91
2022-11-05T18:38:14.342Z,100466.69
2022-11-05T18:40:41.010Z,100466.69
2022-11-05T18:43:07.576Z,100472.47
2022-11-05T18:45:34.322Z,100465.84
2022-11-05T18:48:01.683Z,100462.78
2022-11-05T18:50:29.313Z,100466.31
2022-11-05T18:52:56.685Z,100468.66
2022-11-05T18:55:27.004Z,100466.75
2022-11-05T18:57:53.735Z,100469.09
2022-11-05T19:00:21.183Z,100475.66
2022-11-05T19:02:47.884Z,100475.00
2022-11-05T19:05:28.433Z,100473.13
2022-11-05T19:07:57.228Z,100475.75
2022-11-05T19:10:24.398Z,100473.41
2022-11-05T19:12:50.961Z,100479.72
2022-11-05T19:15:18.350Z,100480.91
2022-11-05T19:17:44.850Z,100486.31
2022-11-05T19:20:11.983Z,100485.03
2022-11-05T19:22:38.730Z,100495.63
2022-11-05T19:25:06.052Z,100486.66
2022-11-05T19:27:34.524Z,100496.41
2022-11-05T19:30:01.249Z,100493.47
2022-11-05T19:32:27.840Z,100502.19
2022-11-05T19:34:54.409Z,100503.84
2022-11-05T19:37:21.086Z,100492.78
2022-11-05T19:39:47.560Z,100503.16
2022-11-05T19:42:14.034Z,100502.44
2022-11-05T19:44:41.373Z,100506.09
2022-11-05T19:47:07.890Z,100502.91
2022-11-05T19:49:34.451Z,100504.56
2022-11-05T19:52:01.179Z,100510.34
2022-11-05T19:54:27.746Z,100517.72
2022-11-05T19:56:54.325Z,100509.72
2022-11-05T19:59:21.032Z,100510.66
2022-11-05T20:01:48.244Z,100515.38
2022-11-05T20:04:15.274Z,100509.69
2022-11-05T20:06:41.851Z,100508.53
2022-11-05T20:09:21.563Z,100512.78
2022-11-05T20:11:50.451Z,100513.28
2022-11-05T20:14:17.306Z,100521.63
2022-11-05T20:16:45.254Z,100524.69
2022-11-05T20:19:17.364Z,100525.25
2022-11-05T20:21:44.262Z,100521.03
2022-11-05T20:24:12.553Z,100517.25
2022-11-05T20:26:39.611Z,100525.25
2022-11-05T20:29:06.509Z,100522.88
2022-11-05T20:31:33.361Z,100521.00
2022-11-05T20:33:59.972Z,100523.13
2022-11-05T20:36:26.660Z,100528.78
2022-11-05T20:38:55.929Z,100524.41
2022-11-05T20:41:22.750Z,100520.41
2022-11-05T20:43:49.570Z,100521.47
2022-11-05T20:46:18.763Z,100518.19
2022-11-05T20:48:45.763Z,100518.19
2022-11-05T20:51:14.881Z,100517.00
2022-11-05T20:53:42.143Z,100521.47
2022-11-05T20:56:15.404Z,100517.47
2022-11-05T20:58:41.900Z,100518.88
2022-11-05T21:01:10.908Z,100516.50
2022-11-05T21:03:37.614Z,100524.50
2022-11-05T21:06:05.542Z,100517.66
2022-11-05T21:08:33.321Z,100515.31
2022-11-05T21:10:59.917Z,100504.81
2022-11-05T21:13:27.226Z,100508.13
2022-11-05T21:15:58.992Z,100510.59
2022-11-05T21:18:36.534Z,100537.91
2022-11-05T21:21:08.472Z,100508.94
2022-11-05T21:23:35.101Z,100506.78
2022-11-05T21:26:10.667Z,100512.25
2022-11-05T21:28:39.718Z,100514.84
2022-11-05T21:31:07.308Z,100518.16
2022-11-05T21:33:34.169Z,100516.03
2022-11-05T21:36:09.544Z,100512.03
2022-11-05T21:38:36.321Z,100516.06
2022-11-05T21:41:03.410Z,100509.94
2022-11-05T21:43:30.073Z,100516.66
2022-11-05T21:46:01.593Z,100516.41
2022-11-05T21:48:28.252Z,100515.22
2022-11-05T21:50:54.896Z,100519.84
2022-11-05T21:53:21.554Z,100522.19
2022-11-05T21:55:48.094Z,100518.06
2022-11-05T21:58:16.707Z,100522.19
2022-11-05T22:00:43.226Z,100515.94
2022-11-05T22:03:09.745Z,100524.19
2022-11-05T22:05:36.416Z,100523.59
2022-11-05T22:08:03.096Z,100528.41
2022-11-05T22:10:29.982Z,100525.59
2022-11-05T22:12:56.613Z,100537.50
2022-11-05T22:15:23.676Z,100530.41
2022-11-05T22:17:51.086Z,100529.94
2022-11-05T22:20:17.720Z,100530.19
2022-11-05T22:22:44.884Z,100529.94
2022-11-05T22:25:12.172Z,100536.19
2022-11-05T22:27:38.886Z,100527.13
2022-11-05T22:30:06.082Z,100528.19
2022-11-05T22:32:32.675Z,100540.78
2022-11-05T22:34:59.149Z,100546.91
2022-11-05T22:37:25.795Z,100545.72
2022-11-05T22:39:52.269Z,100554.81
2022-11-05T22:42:18.863Z,100556.06
2022-11-05T22:44:45.538Z,100555.38
2022-11-05T22:47:12.002Z,100553.97
2022-11-05T22:49:38.482Z,100555.75
2022-11-05T22:52:05.297Z,100563.66
2022-11-05T22:54:36.377Z,100568.25
2022-11-05T22:57:05.473Z,100570.97
2022-11-05T22:59:32.069Z,100571.31
2022-11-05T23:01:58.781Z,100569.53
2022-11-05T23:04:25.379Z,100572.63
2022-11-05T23:06:51.957Z,100576.38
2022-11-05T23:09:28.554Z,100582.75
2022-11-05T23:11:55.142Z,100581.09
2022-11-05T23:14:21.622Z,100588.16
2022-11-05T23:16:48.093Z,100583.34
2022-11-05T23:19:14.782Z,100581.69
2022-11-05T23:21:41.318Z,100580.88
2022-11-05T23:24:08.129Z,100581.47
2022-11-05T23:26:37.208Z,100586.88
2022-11-05T23:29:03.784Z,100583.34
2022-11-05T23:31:30.327Z,100574.16
2022-11-05T23:33:57.114Z,100584.75
2022-11-05T23:36:23.666Z,100588.75
2022-11-05T23:38:50.158Z,100575.56
2022-11-05T23:41:16.862Z,100576.28
2022-11-05T23:43:43.408Z,100583.22
2022-11-05T23:46:09.927Z,100577.22
2022-11-05T23:48:37.836Z,100578.28
2022-11-05T23:51:09.859Z,100574.50
2022-11-05T23:53:38.773Z,100574.97
2022-11-05T23:56:06.993Z,100575.94
2022-11-05T23:58:33.868Z,100578.06
